Aeroboteco Virtual Airlines! Uma nuvem a frente.



 INFORMAÇÕES METEOROLÓGICAS
METAR FOR SBDN
ADDS - METARS form results

(1555 UTC 07 August 2022)
Data provider http://aviationweather.gov/metar/data/
 
METAR text: SBDN 071500Z 11011KT CAVOK 23/15 Q1015
Conditions at: SBDN (PRESIDENTE PRUDE, BR) observed 1500 UTC 07 August 2022
Temperature: 23.0°C (73°F)
Dewpoint: 15.0°C (59°F) [RH = 61%]
Pressure (altimeter): 29.97 inches Hg (1015.0 mb)
Winds: from the ESE (110 degrees) at 13 MPH (11 knots; 5.7 m/s)
Visibility: 6 or more miles (10+ km)
Ceiling: ceiling and visibility are OK
Clouds: unknown
Weather: no significant weather observed at this time

 MAPA DO AEROPORTO

 INFORMAÇÕES DA PISTA
Pista 12 Tamanho da pista 6923 ft Largura da pista 115 ft
Elevação da pista 0 ft Ranhura da pista 0 ft Proa da pista 0
Pista 30 Tamanho da pista 6923 ft Largura da pista 115 ft
Elevação da pista 0 ft Ranhura da pista 0 ft Proa da pista 0

 FREQUÊNCIAS DO AEROPORTO
Tipo AFIS Nome PRUDENTE R Frequência 118.45 MHZ
Tipo APP Nome PRUDENTE A Frequência 118.45 MHZ
Tipo TWR Nome PRUDENTE T Frequência 118.45 MHZ

 AUXÍLIOS DE NAVEGAÇÃO PRÓXIMOS AO AEROPORTO
Tipo VOR-DME Nome Prudente Frequência 113500 KHZ
Tipo NDB Nome Prudente Frequência 225 KHZ